createdAt,value
2023-03-02T03:57:21.882Z,77.40
2023-03-02T03:59:48.587Z,77.65
2023-03-02T04:02:14.947Z,77.65
2023-03-02T04:04:42.651Z,77.67
2023-03-02T04:07:13.464Z,77.68
2023-03-02T04:09:41.833Z,77.82
2023-03-02T04:12:11.042Z,77.96
2023-03-02T04:14:39.772Z,78.02
2023-03-02T04:17:06.513Z,78.24
2023-03-02T04:19:35.584Z,78.24
2023-03-02T04:22:02.997Z,78.27
2023-03-02T04:24:30.562Z,78.42
2023-03-02T04:26:59.643Z,78.31
2023-03-02T04:29:26.414Z,78.40
2023-03-02T04:31:53.769Z,78.24
2023-03-02T04:34:21.518Z,78.36
2023-03-02T04:36:48.490Z,78.67
2023-03-02T04:39:16.236Z,78.79
2023-03-02T04:41:46.407Z,78.92
2023-03-02T04:44:13.506Z,78.74
2023-03-02T04:46:41.795Z,79.02
2023-03-02T04:49:09.634Z,78.89
2023-03-02T04:51:37.510Z,78.87
2023-03-02T04:54:09.944Z,78.76
2023-03-02T04:56:36.274Z,78.70
2023-03-02T04:59:02.638Z,78.36
2023-03-02T05:01:29.046Z,78.41
2023-03-02T05:03:55.481Z,78.58
2023-03-02T05:06:21.933Z,78.98
2023-03-02T05:08:48.248Z,79.27
2023-03-02T05:11:15.350Z,79.29
2023-03-02T05:13:41.737Z,79.46
2023-03-02T05:16:08.089Z,79.36
2023-03-02T05:18:34.459Z,79.76
2023-03-02T05:21:00.780Z,79.64
2023-03-02T05:23:27.098Z,79.63
2023-03-02T05:25:54.771Z,79.80
2023-03-02T05:28:22.114Z,79.54
2023-03-02T05:30:48.841Z,79.35
2023-03-02T05:33:15.681Z,79.09
2023-03-02T05:35:42.323Z,79.05
2023-03-02T05:38:09.152Z,79.12
2023-03-02T05:40:35.467Z,79.52
2023-03-02T05:43:01.797Z,79.43
2023-03-02T05:45:30.227Z,79.48
2023-03-02T05:47:56.610Z,79.48
2023-03-02T05:50:23.360Z,79.72
2023-03-02T05:52:49.930Z,79.97
2023-03-02T05:55:16.892Z,80.01
2023-03-02T05:57:43.577Z,80.25
2023-03-02T06:00:11.136Z,80.46
2023-03-02T06:02:40.878Z,80.33
2023-03-02T06:05:08.813Z,80.19
2023-03-02T06:07:35.098Z,80.31
2023-03-02T06:10:01.716Z,80.27
2023-03-02T06:12:28.908Z,80.47
2023-03-02T06:14:55.209Z,80.35
2023-03-02T06:17:21.545Z,80.30
2023-03-02T06:19:47.885Z,79.93
2023-03-02T06:22:14.167Z,79.69
2023-03-02T06:24:40.467Z,79.63
2023-03-02T06:27:06.734Z,79.53
2023-03-02T06:29:33.048Z,79.67
2023-03-02T06:31:59.468Z,79.81
2023-03-02T06:34:25.901Z,80.04
2023-03-02T07:56:11.114Z,79.89
2023-03-02T07:58:37.470Z,79.83
2023-03-02T08:01:04.021Z,79.80
2023-03-02T08:03:30.436Z,79.83
2023-03-02T08:05:56.809Z,79.82
2023-03-02T08:08:23.191Z,79.65
2023-03-02T08:10:49.509Z,79.22
2023-03-02T08:13:16.201Z,79.16
2023-03-02T08:15:42.492Z,79.15
2023-03-02T08:18:08.840Z,79.28
2023-03-02T08:20:36.302Z,79.24
2023-03-02T08:23:02.580Z,79.10
2023-03-02T08:25:29.544Z,78.88
2023-03-02T08:27:55.830Z,78.74
2023-03-02T08:30:22.175Z,78.61
2023-03-02T08:32:48.593Z,78.64
2023-03-02T08:35:14.964Z,78.44
2023-03-02T08:37:41.273Z,78.55
2023-03-02T08:40:08.039Z,78.19
2023-03-02T08:42:34.884Z,78.00
2023-03-02T08:45:01.194Z,77.90
2023-03-02T08:47:27.861Z,77.46
2023-03-02T08:49:54.355Z,77.41
2023-03-02T08:52:20.647Z,77.24
2023-03-02T08:54:47.034Z,76.81
2023-03-02T08:57:13.393Z,76.40
2023-03-02T08:59:39.958Z,76.23
2023-03-02T09:02:06.571Z,75.94
2023-03-02T09:04:33.453Z,75.25
2023-03-02T09:06:59.869Z,74.37
2023-03-02T09:09:26.350Z,74.06
2023-03-02T09:11:52.850Z,73.70
2023-03-02T09:14:20.865Z,72.73
2023-03-02T09:16:47.201Z,72.82
2023-03-02T09:19:13.525Z,72.63
2023-03-02T09:21:39.972Z,72.24
2023-03-02T09:24:06.460Z,72.23
2023-03-02T09:26:32.791Z,70.98
2023-03-02T09:28:59.060Z,70.40
2023-03-02T09:31:25.503Z,70.01
2023-03-02T09:33:51.886Z,69.66
2023-03-02T09:36:23.211Z,69.58
2023-03-02T09:38:49.870Z,68.72
2023-03-02T09:41:19.230Z,68.03
2023-03-02T09:44:04.892Z,67.12
2023-03-02T09:46:42.376Z,66.70
2023-03-02T09:49:20.126Z,65.93
2023-03-02T09:51:51.068Z,64.96
2023-03-02T09:54:20.918Z,63.73
2023-03-02T09:56:48.672Z,62.94
2023-03-02T09:59:18.138Z,61.58
2023-03-02T10:02:03.445Z,60.62
2023-03-02T10:04:34.478Z,59.86
2023-03-02T10:07:09.916Z,59.68
2023-03-02T10:09:36.326Z,58.58
2023-03-02T10:12:11.920Z,57.57
2023-03-02T10:14:43.885Z,56.37
2023-03-02T10:17:29.449Z,55.60
2023-03-02T10:19:59.877Z,54.57
2023-03-02T10:22:32.151Z,54.28
2023-03-02T10:25:07.467Z,53.85
2023-03-02T10:27:41.997Z,52.51
2023-03-02T10:30:17.633Z,51.66
2023-03-02T10:32:46.348Z,50.97
2023-03-02T10:35:23.426Z,50.10
2023-03-02T10:38:01.610Z,49.09
2023-03-02T10:40:38.859Z,47.91
2023-03-02T10:43:06.906Z,47.21
2023-03-02T10:45:33.376Z,46.67
2023-03-02T10:48:04.525Z,47.01
2023-03-02T10:54:29.546Z,44.94
2023-03-02T11:25:23.041Z,36.59
2023-03-02T11:27:51.703Z,35.48
2023-03-02T11:30:22.605Z,34.56
2023-03-02T12:00:36.707Z,31.33
2023-03-02T12:03:07.451Z,30.49
2023-03-02T12:05:35.887Z,29.68
2023-03-02T12:08:07.034Z,29.30
2023-03-02T12:10:37.972Z,29.12
2023-03-02T12:13:22.635Z,28.77
2023-03-02T12:15:49.535Z,28.15
2023-03-02T12:18:26.966Z,27.24
2023-03-02T12:21:02.944Z,27.33
2023-03-02T12:23:30.300Z,27.49
2023-03-02T12:26:08.004Z,27.58
2023-03-02T12:28:36.053Z,27.82
2023-03-02T12:31:07.560Z,26.00
2023-03-02T12:33:38.196Z,25.41
2023-03-02T12:36:15.960Z,25.66
2023-03-02T12:38:43.609Z,25.35
2023-03-02T12:41:09.941Z,25.96
2023-03-02T12:43:37.632Z,26.05
2023-03-02T12:46:24.773Z,26.42
2023-03-02T12:49:10.773Z,25.70
2023-03-02T12:51:47.404Z,25.59
2023-03-02T12:54:22.575Z,25.40
2023-03-02T12:56:49.830Z,25.49
2023-03-02T12:59:21.033Z,25.06
2023-03-02T13:01:47.464Z,25.43
2023-03-02T13:04:24.857Z,25.29
2023-03-02T13:06:52.647Z,25.19
2023-03-02T13:09:19.300Z,25.41
2023-03-02T13:11:46.468Z,24.68
2023-03-02T13:14:17.746Z,24.50
2023-03-02T13:16:53.379Z,23.93
2023-03-02T13:19:20.207Z,24.07
2023-03-02T13:52:39.573Z,32.92
2023-03-02T13:55:11.926Z,33.78
2023-03-02T13:57:38.339Z,34.53
2023-03-02T14:00:04.982Z,35.50
2023-03-02T14:02:33.916Z,36.08
2023-03-02T14:05:00.711Z,36.83
2023-03-02T14:07:27.066Z,37.29
2023-03-02T14:09:53.829Z,37.91
2023-03-02T14:12:28.837Z,38.45
2023-03-02T14:14:56.764Z,39.01
2023-03-02T14:17:24.334Z,39.58
2023-03-02T14:19:51.032Z,40.02
2023-03-02T14:22:45.472Z,40.58
2023-03-02T14:25:12.050Z,41.17
2023-03-02T14:27:39.237Z,41.58
2023-03-02T14:30:32.561Z,42.09
2023-03-02T14:33:00.108Z,42.59
2023-03-02T14:35:26.698Z,42.80
2023-03-02T14:37:53.265Z,42.95
2023-03-02T14:40:22.914Z,43.27
2023-03-02T14:42:50.830Z,43.84
2023-03-02T14:45:17.249Z,44.00
2023-03-02T14:47:44.761Z,44.53
2023-03-02T14:50:11.641Z,44.63
2023-03-02T14:52:41.010Z,45.00
2023-03-02T14:55:14.903Z,45.27
2023-03-02T14:57:41.658Z,45.52
2023-03-02T15:00:12.293Z,45.76
2023-03-02T15:02:43.502Z,46.16
2023-03-02T15:05:20.395Z,46.14
2023-03-02T15:07:47.351Z,46.42
2023-03-02T15:10:15.074Z,46.59
2023-03-02T15:12:42.130Z,47.03
2023-03-02T15:15:09.197Z,47.26
2023-03-02T15:17:35.535Z,47.65
2023-03-02T15:20:01.920Z,47.93
2023-03-02T15:22:28.317Z,48.07
2023-03-02T15:24:54.777Z,48.18
2023-03-02T15:27:21.622Z,48.33
2023-03-02T15:29:48.001Z,48.78
2023-03-02T15:32:14.884Z,49.13
2023-03-02T15:34:41.339Z,49.32
2023-03-02T15:37:08.879Z,49.38
2023-03-02T15:39:35.175Z,49.76
2023-03-02T15:42:01.510Z,50.03
2023-03-02T15:44:27.968Z,50.35
2023-03-02T15:46:55.085Z,50.45
2023-03-02T15:49:21.603Z,50.73
2023-03-02T15:51:48.443Z,50.82
2023-03-02T15:54:15.006Z,51.15
2023-03-02T15:56:44.394Z,51.10
2023-03-02T15:59:11.228Z,51.17
2023-03-02T16:01:37.627Z,51.69
2023-03-02T16:04:04.015Z,51.78
2023-03-02T16:06:30.416Z,52.01
2023-03-02T16:08:56.764Z,52.03
2023-03-02T16:11:24.166Z,52.37
2023-03-02T16:13:50.718Z,52.38
2023-03-02T16:16:18.013Z,52.83
2023-03-02T16:18:54.653Z,53.34
2023-03-02T16:21:21.554Z,53.25
2023-03-02T16:23:48.266Z,53.45
2023-03-02T16:26:15.788Z,53.79
2023-03-02T16:28:42.252Z,54.16
2023-03-02T16:31:10.506Z,54.33
2023-03-02T16:33:37.399Z,54.47
2023-03-02T16:36:04.035Z,54.51
2023-03-02T16:38:30.407Z,54.64
2023-03-02T16:40:57.256Z,54.88
2023-03-02T16:43:23.820Z,54.95
2023-03-02T16:45:50.902Z,55.45
2023-03-02T16:48:17.541Z,55.66
2023-03-02T16:50:45.295Z,55.96
2023-03-02T16:53:11.612Z,56.20
2023-03-02T16:55:38.298Z,56.52
2023-03-02T16:58:04.748Z,56.37
2023-03-02T17:00:31.083Z,56.76
2023-03-02T17:02:58.256Z,56.81
2023-03-02T17:05:24.699Z,57.03
2023-03-02T17:07:50.979Z,57.39
2023-03-02T17:10:19.591Z,57.54
2023-03-02T17:12:46.768Z,57.63
2023-03-02T17:15:13.667Z,58.07
2023-03-02T17:17:40.778Z,58.05
2023-03-02T17:20:08.438Z,58.37
2023-03-02T17:22:34.811Z,58.61
2023-03-02T17:25:03.486Z,58.94
2023-03-02T17:27:31.580Z,59.15
2023-03-02T17:29:57.935Z,59.54
2023-03-02T17:32:24.708Z,59.91
2023-03-02T17:34:51.267Z,60.22
2023-03-02T17:37:17.651Z,60.62
2023-03-02T17:39:44.052Z,60.74
2023-03-02T17:42:10.500Z,61.26
2023-03-02T17:44:37.859Z,61.62
2023-03-02T17:47:04.465Z,61.78
2023-03-02T17:49:31.318Z,62.46
2023-03-02T17:51:57.661Z,62.70
2023-03-02T17:54:24.463Z,62.92
2023-03-02T17:56:50.916Z,63.18
2023-03-02T17:59:17.556Z,63.32
2023-03-02T18:01:44.167Z,63.54
2023-03-02T18:04:10.623Z,63.76
2023-03-02T18:06:37.014Z,63.99
2023-03-02T18:09:03.982Z,64.25
2023-03-02T18:11:30.867Z,64.46
2023-03-02T18:13:57.194Z,64.60
2023-03-02T18:16:24.493Z,64.82
2023-03-02T18:18:53.581Z,65.11
2023-03-02T18:21:20.709Z,65.21
2023-03-02T18:23:47.034Z,65.52
2023-03-02T18:26:14.385Z,65.61
2023-03-02T18:28:40.900Z,65.78
2023-03-02T18:31:07.382Z,66.22
2023-03-02T18:33:36.587Z,66.43
2023-03-02T18:36:03.077Z,66.27
2023-03-02T18:38:29.721Z,66.42
2023-03-02T18:40:57.660Z,66.35
2023-03-02T18:43:24.313Z,66.32
2023-03-02T18:45:51.158Z,66.44
2023-03-02T18:48:17.748Z,67.02
2023-03-02T18:50:44.210Z,67.38
2023-03-02T18:53:12.867Z,67.51
2023-03-02T18:55:42.098Z,67.68
2023-03-02T18:58:15.541Z,67.87
2023-03-02T19:00:41.928Z,68.03
2023-03-02T19:03:08.701Z,68.12
2023-03-02T19:05:35.960Z,68.41
2023-03-02T19:08:02.285Z,68.36
2023-03-02T19:10:28.727Z,68.43
2023-03-02T19:12:55.145Z,68.50
2023-03-02T19:15:21.551Z,68.49
2023-03-02T19:17:48.312Z,68.63
2023-03-02T19:20:17.553Z,68.68
2023-03-02T19:22:44.008Z,68.99
2023-03-02T19:25:10.700Z,69.27
2023-03-02T19:27:37.176Z,69.46
2023-03-02T19:30:04.581Z,69.58
2023-03-02T19:32:30.998Z,69.78
2023-03-02T19:34:57.377Z,70.11
2023-03-02T19:37:23.736Z,70.32
2023-03-02T19:39:50.673Z,70.62
2023-03-02T19:42:17.210Z,70.95
2023-03-02T19:44:43.637Z,71.08
2023-03-02T19:47:10.196Z,71.32
2023-03-02T19:49:36.669Z,71.37
2023-03-02T19:52:03.410Z,71.18
2023-03-02T19:54:29.810Z,71.14
2023-03-02T19:56:56.275Z,71.22
2023-03-02T19:59:23.214Z,71.44
2023-03-02T20:01:50.708Z,71.41
2023-03-02T20:04:17.371Z,71.52
2023-03-02T20:06:44.434Z,71.69
2023-03-02T20:09:11.230Z,71.70
2023-03-02T20:11:37.781Z,71.90
2023-03-02T20:14:04.399Z,72.22
2023-03-02T20:16:32.447Z,72.31
2023-03-02T20:18:59.458Z,72.72
2023-03-02T20:21:25.863Z,72.69
2023-03-02T20:23:53.083Z,72.95
2023-03-02T20:26:21.085Z,72.95
2023-03-02T20:28:47.842Z,72.80
2023-03-02T20:31:14.833Z,72.83
2023-03-02T20:33:44.010Z,72.94
2023-03-02T20:36:13.977Z,72.85
2023-03-02T20:38:45.809Z,73.03
2023-03-02T20:41:13.117Z,72.98
2023-03-02T20:43:39.776Z,73.19
2023-03-02T20:46:07.351Z,73.32
2023-03-02T20:48:34.146Z,73.50
2023-03-02T20:51:00.840Z,73.70
2023-03-02T20:53:27.856Z,73.88
2023-03-02T20:55:55.560Z,73.92
2023-03-02T20:58:21.912Z,73.83
2023-03-02T21:00:48.376Z,73.89
2023-03-02T21:03:14.894Z,74.07
2023-03-02T21:05:41.783Z,74.44
2023-03-02T21:08:10.964Z,74.46
2023-03-02T21:10:37.438Z,74.79
2023-03-02T21:13:05.021Z,74.91
2023-03-02T21:15:31.597Z,75.08
2023-03-02T21:17:57.981Z,74.98
2023-03-02T21:20:26.541Z,75.11
2023-03-02T21:22:52.917Z,75.06
2023-03-02T21:25:19.553Z,75.03
2023-03-02T21:27:46.412Z,75.30
2023-03-02T21:30:17.717Z,75.60
2023-03-02T21:32:44.037Z,75.70
2023-03-02T21:35:11.841Z,75.80
2023-03-02T21:37:39.180Z,75.94
2023-03-02T21:40:06.264Z,76.24
2023-03-02T21:42:32.696Z,76.58
2023-03-02T21:44:59.098Z,76.63
2023-03-02T21:47:25.431Z,76.67
2023-03-02T21:49:51.800Z,76.68
2023-03-02T21:52:18.223Z,76.84
2023-03-02T21:54:44.564Z,76.70
2023-03-02T21:57:10.904Z,76.75
2023-03-02T21:59:37.474Z,76.75
2023-03-02T22:02:04.203Z,76.84
2023-03-02T22:04:30.618Z,76.94
2023-03-02T22:06:58.119Z,77.05
2023-03-02T22:09:24.427Z,77.09
2023-03-02T22:11:50.718Z,77.17
2023-03-02T22:14:17.157Z,77.25
2023-03-02T22:16:44.950Z,77.43
2023-03-02T22:19:21.585Z,77.45
2023-03-02T22:21:48.290Z,77.56
2023-03-02T22:24:19.696Z,77.49
2023-03-02T22:26:48.890Z,77.47
2023-03-02T22:29:34.187Z,77.31
2023-03-02T22:32:11.783Z,76.88
2023-03-02T22:34:39.753Z,76.78
2023-03-02T22:37:10.921Z,76.99
2023-03-02T22:39:37.286Z,77.49
2023-03-02T22:42:11.845Z,77.68
2023-03-02T22:44:38.627Z,77.73
2023-03-02T22:47:23.611Z,77.94
2023-03-02T22:49:55.070Z,78.10
2023-03-02T22:52:22.800Z,78.17
2023-03-02T22:54:49.187Z,78.32
2023-03-02T22:57:23.155Z,78.34
2023-03-02T22:59:49.652Z,78.62
2023-03-02T23:02:17.231Z,78.79
2023-03-02T23:04:44.788Z,78.82
2023-03-02T23:07:13.282Z,79.03
2023-03-02T23:09:39.749Z,79.28
2023-03-02T23:12:29.546Z,79.63
2023-03-02T23:14:56.949Z,79.68
2023-03-02T23:17:23.426Z,79.41
2023-03-02T23:19:50.537Z,79.46
2023-03-02T23:22:17.271Z,79.60
2023-03-02T23:24:43.630Z,79.54
2023-03-02T23:27:10.693Z,79.55
2023-03-02T23:29:37.062Z,79.58
2023-03-02T23:32:03.581Z,79.58
2023-03-02T23:34:30.336Z,79.62
2023-03-02T23:36:57.427Z,79.88
2023-03-02T23:39:23.829Z,79.86
2023-03-02T23:41:50.412Z,79.77
2023-03-02T23:44:17.372Z,79.77
2023-03-02T23:46:43.756Z,79.84
2023-03-02T23:49:10.227Z,80.38
2023-03-02T23:51:36.596Z,80.80
2023-03-02T23:54:04.772Z,80.85
2023-03-02T23:56:31.295Z,80.76
2023-03-02T23:58:57.638Z,80.67
